Time;durP1;ratioP1;P1;durP2;ratioP2;P2;SDS_P1;SDS_P2;PMS_P1;PMS_P2;Temp;Humidity;BMP_temperature;BMP_pressure;BME280_temperature;BME280_humidity;BME280_pressure;Samples;Min_cycle;Max_cycle;Signal;HPM_P1;HPM_P2
2022/02/16 00:00:33;;;;;;;6.22;3.40;;;;;;;12.11;60.50;100294.66;4989112;28;124130;-65
2022/02/16 00:03:00;;;;;;;4.80;3.25;;;;;;;12.12;60.52;100286.59;4992136;28;114511;-66
2022/02/16 00:05:28;;;;;;;6.85;3.75;;;;;;;12.14;60.47;100284.72;4989469;28;114580;-66
2022/02/16 00:07:55;;;;;;;6.75;3.70;;;;;;;12.14;60.52;100284.72;4990532;28;124752;-65
2022/02/16 00:10:22;;;;;;;5.97;3.83;;;;;;;12.15;60.40;100259.88;4990537;28;122824;-65
2022/02/16 00:12:51;;;;;;;6.72;3.78;;;;;;;12.15;60.35;100259.88;4991030;28;114049;-65
2022/02/16 00:15:18;;;;;;;6.55;3.85;;;;;;;12.16;60.54;100240.34;4992246;28;114156;-65
2022/02/16 00:17:46;;;;;;;6.55;3.97;;;;;;;12.17;60.54;100246.53;4989555;28;124427;-65
2022/02/16 00:20:13;;;;;;;5.50;3.58;;;;;;;12.17;60.45;100242.06;4989168;28;123685;-66
2022/02/16 00:22:42;;;;;;;5.45;3.78;;;;;;;12.17;60.44;100236.75;4991182;28;113155;-65
2022/02/16 00:25:09;;;;;;;5.47;3.72;;;;;;;12.17;60.48;100228.78;4991499;28;114276;-66
2022/02/16 00:27:37;;;;;;;5.95;3.83;;;;;;;12.18;60.59;100233.13;4988415;28;124083;-65
2022/02/16 00:30:05;;;;;;;5.25;3.78;;;;;;;12.19;60.75;100240.16;4988667;28;124371;-65
2022/02/16 00:32:33;;;;;;;6.78;3.85;;;;;;;12.21;60.68;100232.97;4990464;28;114474;-66
2022/02/16 00:35:01;;;;;;;5.50;3.60;;;;;;;12.23;60.52;100225.75;4990800;28;115154;-65
2022/02/16 00:37:28;;;;;;;8.25;4.03;;;;;;;12.25;60.53;100239.78;4991603;28;123180;-65
2022/02/16 00:39:56;;;;;;;5.25;3.70;;;;;;;12.26;60.74;100230.88;4990053;28;123150;-66
2022/02/16 00:42:24;;;;;;;6.20;3.60;;;;;;;12.26;60.77;100225.56;4990109;28;114618;-65
2022/02/16 00:44:52;;;;;;;5.00;3.42;;;;;;;12.29;60.70;100228.97;4990968;28;114081;-66
2022/02/16 00:47:19;;;;;;;5.53;3.85;;;;;;;12.30;60.71;100214.72;4989666;28;124098;-66
2022/02/16 00:49:46;;;;;;;6.57;3.60;;;;;;;12.30;60.65;100209.44;4989868;28;123099;-66
2022/02/16 00:52:17;;;;;;;4.95;3.72;;;;;;;12.31;60.69;100195.22;4990688;28;113470;-66
2022/02/16 00:54:46;;;;;;;6.78;3.70;;;;;;;12.29;60.83;100197.97;4990836;28;113064;-66
2022/02/16 00:57:16;;;;;;;4.32;3.20;;;;;;;12.26;60.66;100193.72;4974623;28;123867;-66
2022/02/16 00:59:44;;;;;;;5.72;3.53;;;;;;;12.27;60.65;100190.09;4990256;28;123097;-66
2022/02/16 01:02:11;;;;;;;4.53;3.40;;;;;;;12.29;60.55;100186.50;4990432;28;113356;-66
2022/02/16 01:04:38;;;;;;;5.18;3.40;;;;;;;12.30;60.77;100185.53;4987997;28;114605;-66
2022/02/16 01:07:07;;;;;;;5.75;3.58;;;;;;;12.30;60.75;100177.56;4989363;28;123847;-65
2022/02/16 01:09:34;;;;;;;4.43;3.25;;;;;;;12.31;60.88;100179.28;4988601;28;124099;-65
2022/02/16 01:12:02;;;;;;;6.22;3.67;;;;;;;12.33;60.77;100172.06;4989524;28;114036;-65
2022/02/16 01:14:33;;;;;;;4.30;3.33;;;;;;;12.34;60.87;100173.75;4990341;28;113093;-66
2022/02/16 01:17:11;;;;;;;5.50;3.55;;;;;;;12.37;60.84;100178.88;4988814;28;127180;-66
2022/02/16 01:19:53;;;;;;;4.65;3.53;;;;;;;12.36;60.74;100161.28;4989149;28;123067;-65
2022/02/16 01:22:22;;;;;;;5.97;3.40;;;;;;;12.36;60.81;100171.88;4989725;28;113409;-66
2022/02/16 01:24:51;;;;;;;6.28;3.42;;;;;;;12.37;60.87;100168.28;4990430;28;113238;-66
2022/02/16 01:27:20;;;;;;;6.50;3.67;;;;;;;12.38;60.76;100164.69;4989712;28;123551;-65
2022/02/16 01:29:51;;;;;;;5.03;3.85;;;;;;;12.38;60.99;100148.75;4989488;28;124035;-66
2022/02/16 01:32:38;;;;;;;5.45;3.63;;;;;;;12.38;60.78;100154.91;4989311;28;114461;-66
2022/02/16 01:35:06;;;;;;;5.45;3.50;;;;;;;12.38;61.01;100143.44;4989998;28;114529;-66
2022/02/16 01:37:34;;;;;;;6.07;3.50;;;;;;;12.39;61.07;100142.47;4989919;28;124330;-66
2022/02/16 01:40:01;;;;;;;4.55;3.50;;;;;;;12.39;60.89;100135.34;4989230;28;123174;-66
2022/02/16 01:42:34;;;;;;;8.95;3.80;;;;;;;12.41;61.18;100132.59;4989929;28;113350;-66
2022/02/16 01:45:09;;;;;;;6.53;3.63;;;;;;;12.43;60.95;100133.34;4989793;28;115014;-66
2022/02/16 01:47:38;;;;;;;5.43;3.30;;;;;;;12.43;60.93;100128.03;4973989;28;123686;-66
2022/02/16 01:50:08;;;;;;;5.65;3.50;;;;;;;12.42;61.08;100124.53;5005566;28;122981;-66
2022/02/16 01:52:35;;;;;;;5.78;3.50;;;;;;;12.45;61.00;100126.13;4989494;28;114426;-66
2022/02/16 01:55:02;;;;;;;5.40;3.50;;;;;;;12.45;61.10;100131.44;4989752;28;113662;-66
2022/02/16 01:57:36;;;;;;;4.97;3.22;;;;;;;12.45;60.98;100123.47;4988865;28;123756;-66
2022/02/16 02:00:08;;;;;;;5.68;3.13;;;;;;;12.46;61.05;100118.06;4988592;28;122952;-66
2022/02/16 02:02:45;;;;;;;4.70;3.03;;;;;;;12.47;61.01;100110.97;4991302;28;115656;-66
2022/02/16 02:05:35;;;;;;;6.15;3.25;;;;;;;12.47;61.11;100105.66;4991199;28;114068;-66
2022/02/16 02:08:05;;;;;;;4.95;3.30;;;;;;;12.47;61.09;100100.34;4989164;28;123372;-66
2022/02/16 02:10:34;;;;;;;7.75;3.63;;;;;;;12.47;61.12;100089.72;4972930;28;123025;-66
2022/02/16 02:13:02;;;;;;;4.90;3.40;;;;;;;12.47;61.19;100079.09;4989288;28;114252;-66
2022/02/16 02:15:41;;;;;;;4.28;3.25;;;;;;;12.48;61.21;100080.78;4989623;28;116495;-66
2022/02/16 02:18:20;;;;;;;6.65;3.60;;;;;;;12.47;61.05;100068.47;4988810;28;125800;-66
2022/02/16 02:20:48;;;;;;;6.53;3.63;;;;;;;12.47;61.20;100068.47;4988386;28;124158;-66
2022/02/16 02:23:18;;;;;;;5.70;3.67;;;;;;;12.47;61.15;100060.50;4988573;28;114326;-66
2022/02/16 02:25:52;;;;;;;6.95;3.30;;;;;;;12.49;61.28;100055.94;4989539;28;114047;-65
2022/02/16 02:28:23;;;;;;;5.40;3.20;;;;;;;12.49;61.24;100050.63;4989217;28;123635;-66
2022/02/16 02:30:52;;;;;;;6.15;3.70;;;;;;;12.51;61.31;100038.09;4988606;28;123022;-66
2022/02/16 02:33:22;;;;;;;5.38;3.47;;;;;;;12.51;61.32;100027.47;5005812;28;113676;-66
2022/02/16 02:35:52;;;;;;;5.43;3.10;;;;;;;12.51;61.08;100032.78;4988192;28;114717;-66
2022/02/16 02:38:22;;;;;;;5.05;3.78;;;;;;;12.52;61.18;100029.16;4987435;28;124882;-66
2022/02/16 02:40:53;;;;;;;5.60;3.13;;;;;;;12.51;61.30;100027.47;4988587;28;123150;-65
2022/02/16 02:43:25;;;;;;;4.30;2.90;;;;;;;12.52;61.22;100021.19;4989359;28;114038;-66
2022/02/16 02:45:53;;;;;;;4.72;3.25;;;;;;;12.52;61.30;100018.53;4989401;28;113122;-66
2022/02/16 02:48:25;;;;;;;6.53;3.60;;;;;;;12.53;61.50;100028.22;4988302;28;122934;-66
2022/02/16 02:50:55;;;;;;;4.25;3.00;;;;;;;12.55;61.27;100023.66;4988315;28;123531;-66
2022/02/16 02:53:25;;;;;;;4.78;3.00;;;;;;;12.55;61.27;100013.03;4988756;28;114615;-66
2022/02/16 02:55:53;;;;;;;4.20;2.60;;;;;;;12.54;61.49;100011.31;4989002;28;113309;-66
2022/02/16 02:58:21;;;;;;;4.70;2.88;;;;;;;12.57;61.41;100019.09;4989029;28;123056;-66
2022/02/16 03:00:50;;;;;;;5.00;2.78;;;;;;;12.58;61.30;100020.81;4988477;28;123108;-66
2022/02/16 03:03:17;;;;;;;4.45;2.70;;;;;;;12.59;61.34;100019.84;4988813;28;113375;-66
2022/02/16 03:05:45;;;;;;;5.70;2.97;;;;;;;12.58;61.47;100018.16;4989109;28;113144;-68
2022/02/16 03:08:12;;;;;;;4.05;2.55;;;;;;;12.58;61.53;100012.84;4988443;28;123106;-65
2022/02/16 03:10:39;;;;;;;5.22;2.75;;;;;;;12.59;61.34;100014.53;4987432;28;124712;-65
2022/02/16 03:13:18;;;;;;;5.22;2.95;;;;;;;12.59;61.38;100013.69;4988344;28;114175;-65
2022/02/16 03:15:53;;;;;;;3.78;2.40;;;;;;;12.60;61.34;100005.63;4988827;28;114212;-65
2022/02/16 03:18:22;;;;;;;4.55;2.80;;;;;;;12.62;61.44;100003.72;4988200;28;122837;-65
2022/02/16 03:20:51;;;;;;;4.28;2.65;;;;;;;12.62;61.34;100003.72;4987939;28;122825;-65
2022/02/16 03:23:18;;;;;;;4.05;2.70;;;;;;;12.64;61.34;99995.66;4990072;28;114310;-65
2022/02/16 03:25:45;;;;;;;4.60;2.30;;;;;;;12.64;61.49;99995.66;4981638;28;112932;-65
2022/02/16 03:28:15;;;;;;;4.63;2.47;;;;;;;12.64;61.40;99996.47;4988816;28;124394;-65
2022/02/16 03:30:47;;;;;;;3.92;2.40;;;;;;;12.64;61.35;99991.16;4987381;28;123294;-65
2022/02/16 03:33:31;;;;;;;3.75;2.28;;;;;;;12.65;61.36;99987.53;4969142;28;113829;-65
2022/02/16 03:36:00;;;;;;;4.18;2.40;;;;;;;12.66;61.24;99986.59;4968736;28;115899;-65
2022/02/16 03:38:27;;;;;;;4.13;2.20;;;;;;;12.66;61.28;99983.94;4984990;28;123727;-65
2022/02/16 03:40:56;;;;;;;3.88;2.22;;;;;;;12.66;61.38;99973.31;4970365;28;123047;-67
2022/02/16 03:43:24;;;;;;;3.63;2.28;;;;;;;12.66;61.10;99968.00;4988005;28;113426;-65
2022/02/16 03:45:51;;;;;;;3.22;2.25;;;;;;;12.68;61.29;99959.06;4971754;28;113270;-65
2022/02/16 03:48:21;;;;;;;3.30;2.28;;;;;;;12.66;61.27;99968.00;4987943;28;122958;-65
2022/02/16 03:50:48;;;;;;;3.92;2.03;;;;;;;12.66;61.45;99952.06;4987611;28;123237;-66
2022/02/16 03:53:17;;;;;;;4.20;2.38;;;;;;;12.66;61.40;99944.09;4988525;28;113630;-65
2022/02/16 03:55:45;;;;;;;2.88;2.05;;;;;;;12.65;61.39;99939.72;4989117;28;113837;-66
2022/02/16 03:58:13;;;;;;;3.90;2.38;;;;;;;12.65;61.34;99945.03;4988241;28;123545;-65
2022/02/16 04:00:41;;;;;;;3.67;2.13;;;;;;;12.65;61.44;99945.03;4987553;28;123024;-65
2022/02/16 04:03:09;;;;;;;3.45;2.00;;;;;;;12.66;61.42;99937.94;4971157;28;115487;-65
2022/02/16 04:05:40;;;;;;;2.83;2.08;;;;;;;12.65;61.59;99934.41;4988792;28;114201;-65
2022/02/16 04:08:08;;;;;;;3.15;2.30;;;;;;;12.68;61.48;99937.81;4988424;28;123753;-65
2022/02/16 04:10:36;;;;;;;4.63;2.03;;;;;;;12.68;61.67;99921.88;4987499;28;123078;-65
2022/02/16 04:13:04;;;;;;;2.65;2.00;;;;;;;12.68;61.51;99916.56;4987493;28;113405;-65
2022/02/16 04:15:35;;;;;;;3.53;2.30;;;;;;;12.69;61.48;99907.66;4988155;28;113523;-65
2022/02/16 04:18:07;;;;;;;4.00;2.40;;;;;;;12.69;61.54;99897.03;4971074;28;123123;-66
2022/02/16 04:20:35;;;;;;;3.33;2.20;;;;;;;12.69;61.44;99897.03;4970251;28;123424;-65
2022/02/16 04:23:02;;;;;;;3.83;2.50;;;;;;;12.66;61.57;99888.31;4971097;28;113276;-66
2022/02/16 04:25:30;;;;;;;2.90;2.20;;;;;;;12.68;61.65;99884.69;4971810;28;113278;-66
2022/02/16 04:27:58;;;;;;;3.40;2.40;;;;;;;12.68;61.81;99868.75;4969239;28;124186;-65
2022/02/16 04:30:28;;;;;;;2.85;2.10;;;;;;;12.69;61.59;99859.81;4986443;28;123664;-65
2022/02/16 04:32:57;;;;;;;3.00;2.20;;;;;;;12.69;61.73;99855.34;4987746;28;113577;-65
2022/02/16 04:35:24;;;;;;;3.00;2.33;;;;;;;12.69;61.66;99849.19;4987771;28;112893;-65
2022/02/16 04:37:52;;;;;;;3.47;2.22;;;;;;;12.69;61.63;99838.56;4969455;28;124115;-66
2022/02/16 04:40:20;;;;;;;3.25;2.20;;;;;;;12.70;61.75;99834.97;4971372;28;124923;-65
2022/02/16 04:42:48;;;;;;;3.10;2.17;;;;;;;12.70;61.59;99824.34;4988103;28;113341;-66
2022/02/16 04:45:16;;;;;;;3.13;2.30;;;;;;;12.69;61.62;99822.63;4987867;28;113910;-66
2022/02/16 04:47:45;;;;;;;2.88;1.98;;;;;;;12.69;61.73;99814.66;4970470;28;123250;-66
2022/02/16 04:50:13;;;;;;;3.13;1.80;;;;;;;12.69;61.84;99812.00;4986622;28;122722;-65
2022/02/16 04:52:40;;;;;;;2.20;1.70;;;;;;;12.69;61.77;99802.22;4970448;28;116234;-65
2022/02/16 04:55:27;;;;;;;2.72;1.90;;;;;;;12.69;61.76;99796.06;4972225;28;116395;-65
2022/02/16 04:58:00;;;;;;;2.40;1.58;;;;;;;12.72;61.78;99787.88;4987303;28;123236;-65
2022/02/16 05:00:28;;;;;;;2.03;1.40;;;;;;;12.72;61.72;99795.88;4970569;28;124082;-65
2022/02/16 05:03:04;;;;;;;1.90;1.50;;;;;;;12.71;61.71;99783.53;4987008;28;113486;-66
2022/02/16 05:05:32;;;;;;;1.92;1.50;;;;;;;12.70;61.75;99780.03;4970926;28;113123;-65
2022/02/16 05:07:59;;;;;;;2.30;1.40;;;;;;;12.71;61.73;99788.84;4970010;28;124373;-65
2022/02/16 05:10:27;;;;;;;1.73;1.25;;;;;;;12.71;61.97;99772.91;4986947;28;123702;-65
2022/02/16 05:12:56;;;;;;;2.15;1.33;;;;;;;12.72;61.82;99769.28;4970843;28;113847;-65
2022/02/16 05:15:23;;;;;;;1.80;1.20;;;;;;;12.73;61.88;99765.66;4969326;28;114274;-66
2022/02/16 05:17:53;;;;;;;1.77;1.35;;;;;;;12.73;61.94;99749.72;4969802;28;123097;-66
2022/02/16 05:20:46;;;;;;;1.88;1.23;;;;;;;12.72;61.77;99734.75;4986092;28;124038;-66
2022/02/16 05:23:13;;;;;;;1.77;1.13;;;;;;;12.72;61.84;99732.94;4970165;28;113440;-65
2022/02/16 05:25:41;;;;;;;2.45;1.38;;;;;;;12.73;61.85;99723.16;4987123;28;113083;-65
2022/02/16 05:28:10;;;;;;;1.85;1.33;;;;;;;12.73;61.90;99713.38;4970126;28;123175;-65
2022/02/16 05:30:37;;;;;;;1.95;1.40;;;;;;;12.75;61.86;99721.22;4985935;28;122994;-65
2022/02/16 05:33:05;;;;;;;1.73;1.20;;;;;;;12.76;61.95;99712.31;4970154;28;113626;-65
2022/02/16 05:35:32;;;;;;;2.17;1.40;;;;;;;12.78;62.03;99694.44;4970942;28;113091;-65
2022/02/16 05:38:00;;;;;;;1.90;1.30;;;;;;;12.79;62.01;99701.44;4969995;28;123375;-65
2022/02/16 05:40:29;;;;;;;2.13;1.40;;;;;;;12.79;61.93;99696.13;4986127;28;123125;-66
2022/02/16 05:42:56;;;;;;;1.90;1.40;;;;;;;12.79;62.04;99690.81;4985905;28;114211;-65
2022/02/16 05:45:26;;;;;;;1.77;1.20;;;;;;;12.80;62.16;99689.88;4986978;28;113660;-66
2022/02/16 05:47:53;;;;;;;2.03;1.40;;;;;;;12.80;62.10;99687.22;4970249;28;123306;-65
2022/02/16 05:50:20;;;;;;;2.55;1.30;;;;;;;12.80;61.97;99681.91;4985730;28;123097;-65
2022/02/16 05:52:47;;;;;;;1.92;1.33;;;;;;;12.81;62.13;99672.97;4970015;28;113684;-65
2022/02/16 05:55:15;;;;;;;1.65;1.30;;;;;;;12.80;62.16;99671.28;4986938;28;113488;-66
2022/02/16 05:57:42;;;;;;;1.70;1.35;;;;;;;12.80;61.94;99664.13;4969780;28;123853;-65
2022/02/16 06:00:11;;;;;;;1.83;1.42;;;;;;;12.81;62.00;99647.25;4986320;28;123109;-66
2022/02/16 06:02:38;;;;;;;1.88;1.35;;;;;;;12.80;62.16;99640.22;4970442;28;114092;-65
2022/02/16 06:05:09;;;;;;;2.13;1.50;;;;;;;12.81;62.16;99635.78;4986597;28;113163;-65
2022/02/16 06:07:37;;;;;;;2.15;1.50;;;;;;;12.81;62.18;99630.47;4986104;28;123218;-67
2022/02/16 06:10:06;;;;;;;2.55;1.48;;;;;;;12.82;62.20;99616.22;4985566;28;124137;-65
2022/02/16 06:12:38;;;;;;;2.03;1.20;;;;;;;12.82;62.32;99616.22;4986056;28;113495;-65
2022/02/16 06:15:06;;;;;;;1.40;1.10;;;;;;;12.83;62.30;99617.91;4968512;28;114173;-65
2022/02/16 06:17:36;;;;;;;1.70;1.30;;;;;;;12.83;62.26;99613.44;4986719;28;123211;-66
2022/02/16 06:20:08;;;;;;;1.73;1.30;;;;;;;12.85;62.26;99605.38;4985134;28;123011;-65
2022/02/16 06:22:36;;;;;;;1.73;1.30;;;;;;;12.86;62.36;99607.03;4986421;28;113996;-65
2022/02/16 06:25:06;;;;;;;1.40;1.20;;;;;;;12.88;62.38;99605.13;4986763;28;113018;-65
2022/02/16 06:27:35;;;;;;;1.35;1.10;;;;;;;12.88;62.23;99605.13;4986040;28;123010;-65
2022/02/16 06:30:04;;;;;;;1.50;1.20;;;;;;;12.89;62.46;99596.19;4969215;28;124393;-66
2022/02/16 06:32:43;;;;;;;3.38;0.90;;;;;;;12.90;62.10;99592.56;4986051;28;117117;-66
2022/02/16 06:35:14;;;;;;;1.42;1.00;;;;;;;12.89;62.42;99585.56;4986367;28;114312;-66
2022/02/16 06:37:41;;;;;;;1.67;1.15;;;;;;;12.91;62.36;99588.94;4986098;28;123287;-66
2022/02/16 06:40:11;;;;;;;1.30;0.93;;;;;;;12.92;62.40;99590.66;4985310;28;123198;-66
2022/02/16 06:42:42;;;;;;;1.10;0.88;;;;;;;12.93;62.42;99576.41;4986234;28;113380;-66
2022/02/16 06:45:14;;;;;;;1.20;0.90;;;;;;;12.94;62.38;99572.78;4968999;28;113057;-66
2022/02/16 06:47:43;;;;;;;2.00;0.93;;;;;;;12.96;62.51;99576.16;4985739;28;123167;-65
2022/02/16 06:50:12;;;;;;;1.23;0.90;;;;;;;12.98;62.30;99584.03;4967219;28;123904;-66
2022/02/16 06:52:45;;;;;;;1.23;1.00;;;;;;;12.99;62.52;99578.59;4985198;28;115545;-66
2022/02/16 06:55:15;;;;;;;0.90;0.75;;;;;;;13.01;62.46;99584.63;4985463;28;113177;-66
2022/02/16 06:57:47;;;;;;;1.10;0.90;;;;;;;13.01;62.56;99574.00;4967699;28;123124;-66
2022/02/16 07:00:16;;;;;;;1.10;0.80;;;;;;;13.01;62.38;99568.69;4968185;28;123067;-66
2022/02/16 07:02:47;;;;;;;1.40;0.90;;;;;;;13.03;62.50;99569.44;4985976;28;113720;-66
2022/02/16 07:05:41;;;;;;;1.30;0.90;;;;;;;13.05;62.50;99574.63;4977181;28;114683;-66
2022/02/16 07:08:15;;;;;;;1.58;0.82;;;;;;;13.07;62.72;99574.50;4970707;28;124332;-66
2022/02/16 07:10:44;;;;;;;0.93;0.60;;;;;;;13.08;62.70;99569.06;4984797;28;123220;-66
2022/02/16 07:13:11;;;;;;;1.25;0.90;;;;;;;13.10;62.53;99571.63;4970375;28;113442;-66
2022/02/16 07:15:39;;;;;;;1.10;0.88;;;;;;;13.11;62.54;99567.97;4989264;28;113142;-66
2022/02/16 07:18:06;;;;;;;1.23;0.90;;;;;;;13.12;62.54;99575.84;4988372;28;123167;-66
2022/02/16 07:20:43;;;;;;;1.40;0.90;;;;;;;13.13;62.58;99574.03;4971456;28;123726;-66
2022/02/16 07:23:13;;;;;;;1.73;0.85;;;;;;;13.14;62.61;99592.53;4988260;28;114315;-66
2022/02/16 07:25:41;;;;;;;0.98;0.70;;;;;;;13.14;62.65;99576.56;4989077;28;114183;-66
2022/02/16 07:28:27;;;;;;;1.00;0.80;;;;;;;13.15;62.63;99580.09;4989088;28;123117;-66
2022/02/16 07:30:56;;;;;;;1.50;0.85;;;;;;;13.17;62.70;99584.31;4972275;28;122702;-66
2022/02/16 07:33:25;;;;;;;1.10;0.80;;;;;;;13.19;62.70;99597.50;4989792;28;113543;-66
2022/02/16 07:35:53;;;;;;;1.50;1.00;;;;;;;13.21;62.77;99584.94;4972696;28;113151;-66
2022/02/16 07:38:21;;;;;;;1.30;0.90;;;;;;;13.23;62.65;99588.34;4970867;28;124328;-66
2022/02/16 07:40:48;;;;;;;1.02;0.70;;;;;;;13.24;62.66;99574.06;4971955;28;123052;-66
2022/02/16 07:43:19;;;;;;;1.85;0.85;;;;;;;13.25;62.76;99586.41;4988968;28;113569;-66
2022/02/16 07:46:12;;;;;;;1.08;0.85;;;;;;;13.26;62.83;99569.50;4971710;28;114505;-66
2022/02/16 07:48:42;;;;;;;0.93;0.80;;;;;;;13.28;62.90;99572.88;4988648;28;123303;-66
2022/02/16 07:51:23;;;;;;;1.30;0.90;;;;;;;13.31;62.97;99564.69;4971263;28;123027;-66
2022/02/16 07:54:22;;;;;;;1.48;0.85;;;;;;;13.33;62.95;99568.06;4969415;28;114821;-65
2022/02/16 07:57:04;;;;;;;1.08;0.77;;;;;;;13.34;62.88;99551.16;4972345;28;112853;-66
2022/02/16 07:59:34;;;;;;;1.05;0.70;;;;;;;13.36;63.02;99546.56;4956525;28;124436;-66
2022/02/16 08:02:03;;;;;;;2.00;0.70;;;;;;;13.39;62.97;99546.34;4970972;28;122862;-66
2022/02/16 08:04:30;;;;;;;1.00;0.70;;;;;;;13.41;63.07;99557.69;4989055;28;113157;-66
2022/02/16 08:07:01;;;;;;;1.00;0.80;;;;;;;13.43;63.11;99547.78;4972751;28;112896;-66
2022/02/16 08:09:30;;;;;;;1.60;0.90;;;;;;;13.44;63.15;99546.81;4988607;28;124226;-66
2022/02/16 08:11:57;;;;;;;1.40;0.73;;;;;;;13.47;63.28;99531.56;4987803;28;123261;-66
2022/02/16 08:14:26;;;;;;;1.00;0.70;;;;;;;13.50;63.27;99531.34;4988278;28;115440;-66
2022/02/16 08:16:56;;;;;;;1.02;0.60;;;;;;;13.53;63.25;99536.44;4971961;28;114431;-66
2022/02/16 08:19:23;;;;;;;1.13;0.70;;;;;;;13.55;63.32;99540.66;4988047;28;123583;-66
2022/02/16 08:21:55;;;;;;;1.17;0.70;;;;;;;13.56;63.37;99534.38;4987804;28;123865;-66
2022/02/16 08:24:26;;;;;;;1.23;0.75;;;;;;;13.59;63.26;99544.75;4988575;28;113353;-66
2022/02/16 08:26:57;;;;;;;0.95;0.70;;;;;;;13.62;63.28;99552.50;4988634;28;113820;-66
2022/02/16 08:29:25;;;;;;;0.90;0.65;;;;;;;13.65;63.39;99562.06;4988357;28;123267;-66
2022/02/16 08:31:59;;;;;;;1.53;0.80;;;;;;;13.67;62.99;99570.75;4988422;28;122981;-66
2022/02/16 08:34:44;;;;;;;1.02;0.70;;;;;;;13.69;63.34;99579.47;4973779;28;114776;-66
2022/02/16 08:37:18;;;;;;;2.40;0.73;;;;;;;13.71;63.48;99598.84;4988502;28;113653;-66
2022/02/16 08:39:45;;;;;;;1.30;1.00;;;;;;;13.74;63.37;99593.25;4987054;28;122903;-67
2022/02/16 08:42:12;;;;;;;1.20;0.80;;;;;;;13.77;63.53;99582.41;4985796;28;124859;-66
2022/02/16 08:44:40;;;;;;;1.75;1.00;;;;;;;13.79;63.45;99585.78;4970996;28;114389;-66
2022/02/16 08:47:07;;;;;;;1.20;0.90;;;;;;;13.82;63.51;99609.50;4988703;28;113322;-66
2022/02/16 08:49:34;;;;;;;2.60;1.10;;;;;;;13.85;63.52;99602.25;4971603;28;123916;-65
2022/02/16 08:52:02;;;;;;;1.52;1.02;;;;;;;13.89;63.52;99590.38;4969428;28;123605;-66
2022/02/16 08:54:29;;;;;;;1.92;1.30;;;;;;;13.91;63.59;99609.72;4972720;28;114735;-66
2022/02/16 08:56:57;;;;;;;1.75;1.23;;;;;;;13.94;63.64;99596.19;4970898;28;114365;-66
2022/02/16 08:59:25;;;;;;;1.70;1.10;;;;;;;13.97;63.57;99587.94;4970826;28;123832;-65
2022/02/16 09:01:55;;;;;;;1.42;1.20;;;;;;;14.00;63.61;99598.38;4969510;28;125127;-66
2022/02/16 09:04:22;;;;;;;1.40;1.10;;;;;;;14.03;63.69;99592.78;4971502;28;114961;-66
2022/02/16 09:09:38;;;;;;;;;;;;;;;14.08;63.56;99601.25;4970267;28;125071;-67
2022/02/16 09:12:06;;;;;;;2.60;1.20;;;;;;;14.13;63.47;99603.56;4987422;28;123735;-66
2022/02/16 09:14:34;;;;;;;3.15;1.10;;;;;;;14.16;63.62;99604.13;4971448;28;114114;-66
2022/02/16 09:17:01;;;;;;;1.40;1.05;;;;;;;14.18;63.70;99594.22;4972075;28;114379;-66
2022/02/16 09:19:28;;;;;;;1.75;1.20;;;;;;;14.23;63.90;99577.03;4972044;28;124444;-66
2022/02/16 09:21:56;;;;;;;2.20;1.20;;;;;;;14.27;63.97;99600.63;4969613;28;124611;-66
2022/02/16 09:24:23;;;;;;;2.15;1.20;;;;;;;14.31;63.85;99601.22;4968377;28;114522;-66
2022/02/16 09:26:52;;;;;;;1.65;1.30;;;;;;;14.35;63.91;99597.34;4971469;28;113807;-66
2022/02/16 09:29:20;;;;;;;1.40;1.00;;;;;;;14.38;63.99;99597.09;4968882;28;124021;-65
2022/02/16 09:31:50;;;;;;;1.70;1.00;;;;;;;14.43;63.88;99618.88;4968325;28;124690;-66
2022/02/16 09:34:17;;;;;;;1.40;0.98;;;;;;;14.45;63.94;99619.63;4987700;28;112983;-66
2022/02/16 09:36:44;;;;;;;1.63;1.20;;;;;;;14.47;63.96;99617.66;4969201;28;114399;-66
2022/02/16 09:39:12;;;;;;;1.55;1.15;;;;;;;14.50;63.96;99617.41;4985789;28;124104;-66
2022/02/16 09:41:43;;;;;;;1.80;1.20;;;;;;;14.51;63.87;99613.78;4970247;28;124299;-66
2022/02/16 09:44:17;;;;;;;1.63;1.10;;;;;;;14.53;64.06;99627.81;4971763;28;114874;-66
2022/02/16 09:46:45;;;;;;;2.65;1.10;;;;;;;14.56;64.06;99611.59;4969486;28;113776;-66
2022/02/16 09:49:12;;;;;;;1.60;1.10;;;;;;;14.59;64.17;99622.00;4969859;28;124639;-66
2022/02/16 09:51:39;;;;;;;2.58;1.00;;;;;;;14.62;64.07;99622.72;4986321;28;123207;-66
2022/02/16 09:54:07;;;;;;;1.40;1.00;;;;;;;14.64;64.14;99612.81;4986665;28;114490;-66
2022/02/16 09:56:36;;;;;;;1.60;1.02;;;;;;;14.68;64.09;99619.59;4987068;28;114173;-66
2022/02/16 09:59:03;;;;;;;1.50;1.10;;;;;;;14.71;64.07;99608.66;4971266;28;123834;-66
2022/02/16 10:01:30;;;;;;;1.80;1.08;;;;;;;14.72;64.06;99615.69;4968557;28;124904;-66
2022/02/16 10:04:09;;;;;;;1.45;0.90;;;;;;;14.74;64.07;99608.41;4971460;28;114129;-66
2022/02/16 10:06:44;;;;;;;2.20;1.02;;;;;;;14.76;64.05;99617.13;4986906;28;112900;-66
2022/02/16 10:09:27;;;;;;;2.00;1.03;;;;;;;14.78;64.05;99631.19;4970038;28;123711;-66
2022/02/16 10:11:59;;;;;;;2.28;1.20;;;;;;;14.79;64.10;99643.53;4969414;28;122632;-66
2022/02/16 10:14:30;;;;;;;3.13;1.30;;;;;;;14.80;64.08;99650.56;4970295;28;114756;-66
2022/02/16 10:17:04;;;;;;;2.70;1.50;;;;;;;14.81;64.08;99646.94;4984176;28;114644;-66
2022/02/16 10:19:59;;;;;;;2.30;1.40;;;;;;;14.83;64.14;99634.31;4970395;28;124883;-66
2022/02/16 10:22:30;;;;;;;2.65;1.50;;;;;;;14.86;64.16;99623.41;4968576;28;122800;-66
2022/02/16 10:25:29;;;;;;;2.10;1.50;;;;;;;14.87;64.04;99630.41;4970184;28;114165;-66
2022/02/16 10:28:14;;;;;;;2.28;1.67;;;;;;;14.89;64.18;99614.31;4971161;28;113789;-66
2022/02/16 10:30:59;;;;;;;2.08;1.50;;;;;;;14.91;64.17;99610.53;4967765;28;124153;-67
2022/02/16 10:33:29;;;;;;;1.98;1.30;;;;;;;14.94;63.91;99612.09;4970597;28;124631;-66
2022/02/16 10:36:03;;;;;;;2.10;1.42;;;;;;;14.95;64.13;99606.63;4969175;28;114458;-66
2022/02/16 10:38:32;;;;;;;2.70;1.60;;;;;;;14.99;64.24;99618.75;4968886;28;114179;-66
2022/02/16 10:41:07;;;;;;;2.55;1.70;;;;;;;15.04;64.10;99625.53;4967891;28;123915;-66
2022/02/16 10:43:38;;;;;;;;;;;;;;;15.05;63.99;99627.19;4970748;28;124866;-67
2022/02/16 10:46:18;;;;;;;2.00;1.50;;;;;;;15.09;63.90;99618.00;4968238;28;115521;-66
2022/02/16 10:48:46;;;;;;;3.05;1.55;;;;;;;15.11;63.94;99610.69;4970119;28;114825;-66
2022/02/16 10:51:20;;;;;;;2.30;1.70;;;;;;;15.13;64.01;99598.09;4973828;28;123826;-66
2022/02/16 10:53:50;;;;;;;2.80;1.80;;;;;;;15.17;64.10;99604.84;4974313;28;123981;-66
2022/02/16 10:56:18;;;;;;;3.03;2.20;;;;;;;15.20;64.15;99604.59;4972000;28;114442;-66
2022/02/16 10:58:45;;;;;;;2.75;1.92;;;;;;;15.24;64.30;99598.03;4972100;28;114466;-66
2022/02/16 11:01:12;;;;;;;3.53;2.25;;;;;;;15.28;64.13;99595.94;4973272;28;124484;-68
2022/02/16 11:03:43;;;;;;;3.13;2.25;;;;;;;15.32;64.18;99592.03;4973928;28;124473;-66
2022/02/16 11:06:13;;;;;;;3.80;2.60;;;;;;;15.35;64.16;99581.94;4971784;28;114151;-67
2022/02/16 11:08:41;;;;;;;3.95;2.85;;;;;;;15.38;64.05;99571.00;4989931;28;112959;-66
2022/02/16 11:11:27;;;;;;;4.57;2.78;;;;;;;15.43;63.92;99572.44;4972322;28;124609;-66
2022/02/16 11:14:03;;;;;;;3.65;2.85;;;;;;;15.47;64.12;99563.19;4973701;28;123687;-66
2022/02/16 11:16:32;;;;;;;4.60;3.20;;;;;;;15.49;64.12;99561.25;4989871;28;113891;-66
2022/02/16 11:19:04;;;;;;;4.43;3.30;;;;;;;15.51;64.14;99564.63;4972237;28;114059;-66
2022/02/16 11:21:31;;;;;;;5.03;3.40;;;;;;;15.52;63.89;99576.97;4970643;28;124058;-66
2022/02/16 11:23:59;;;;;;;6.53;3.60;;;;;;;15.53;63.97;99594.69;4988946;28;124228;-66
2022/02/16 11:26:35;;;;;;;4.80;3.40;;;;;;;15.53;63.99;99576.84;4971431;28;114558;-67
2022/02/16 11:29:25;;;;;;;7.25;3.70;;;;;;;15.55;63.96;99571.38;4972607;28;114193;-66
2022/02/16 11:32:13;;;;;;;5.28;3.55;;;;;;;15.55;64.00;99576.72;4970302;28;124784;-67
2022/02/16 11:34:41;;;;;;;8.25;4.00;;;;;;;15.57;63.86;99580.09;4973705;28;124187;-66
2022/02/16 11:37:10;;;;;;;5.28;3.47;;;;;;;15.58;63.96;99571.13;4970823;28;115304;-66
2022/02/16 11:40:00;;;;;;;6.53;3.50;;;;;;;15.59;64.00;99551.44;4972001;28;114635;-66
2022/02/16 11:42:48;;;;;;;10.23;3.80;;;;;;;15.60;64.02;99546.97;4989314;28;123712;-66